createdAt,value
2019-02-23T00:01:07.081Z,6.03
2019-02-23T00:06:15.134Z,5.91
2019-02-23T00:11:23.406Z,6.92
2019-02-23T00:16:31.558Z,6.05
2019-02-23T00:21:39.819Z,6.05
2019-02-23T00:26:47.997Z,6.26
2019-02-23T00:31:56.269Z,6.84
2019-02-23T00:37:04.477Z,5.81
2019-02-23T00:42:12.705Z,7.11
2019-02-23T00:47:20.865Z,6.30
2019-02-23T00:52:29.070Z,6.54
2019-02-23T00:57:37.283Z,6.33
2019-02-23T01:02:45.726Z,5.93
2019-02-23T01:07:54.010Z,5.90
2019-02-23T01:13:02.131Z,6.02
2019-02-23T01:18:10.722Z,6.65
2019-02-23T01:23:19.022Z,6.46
2019-02-23T01:28:27.316Z,6.28
2019-02-23T01:33:35.473Z,6.28
2019-02-23T01:38:44.153Z,6.36
2019-02-23T01:43:52.400Z,7.19
2019-02-23T01:49:00.538Z,6.88
2019-02-23T01:54:08.873Z,10.09
2019-02-23T01:59:16.969Z,5.99
2019-02-23T02:04:25.120Z,6.38
2019-02-23T02:09:33.257Z,6.35
2019-02-23T02:14:41.730Z,6.85
2019-02-23T02:19:50.109Z,6.64
2019-02-23T02:24:58.319Z,7.09
2019-02-23T02:30:06.486Z,6.90
2019-02-23T02:35:14.758Z,7.84
2019-02-23T02:40:22.958Z,7.15
2019-02-23T02:45:31.213Z,6.97
2019-02-23T02:50:39.397Z,7.41
2019-02-23T02:55:47.583Z,6.68
2019-02-23T03:00:55.708Z,7.80
2019-02-23T03:06:04.100Z,6.93
2019-02-23T03:11:12.125Z,8.30
2019-02-23T03:16:20.704Z,7.21
2019-02-23T03:21:28.855Z,8.12
2019-02-23T03:26:37.028Z,7.85
2019-02-23T03:31:45.242Z,7.93
2019-02-23T03:36:53.555Z,8.12
2019-02-23T03:42:01.962Z,9.01
2019-02-23T03:47:10.202Z,8.82
2019-02-23T03:52:18.490Z,9.33
2019-02-23T03:57:26.789Z,9.13
2019-02-23T04:02:34.992Z,8.00
2019-02-23T04:07:43.590Z,7.90
2019-02-23T04:12:51.765Z,7.09
2019-02-23T04:17:59.945Z,6.98
2019-02-23T04:23:08.204Z,7.00
2019-02-23T04:28:16.336Z,7.14
2019-02-23T04:33:24.548Z,6.98
2019-02-23T04:38:32.680Z,6.98
2019-02-23T04:43:43.910Z,7.31
2019-02-23T04:48:48.245Z,7.07
2019-02-23T04:53:56.521Z,7.41
2019-02-23T04:59:04.638Z,7.87
2019-02-23T05:04:12.758Z,6.95
2019-02-23T05:09:20.973Z,7.82
2019-02-23T05:14:29.109Z,8.15
2019-02-23T05:19:37.281Z,7.20
2019-02-23T05:24:45.524Z,7.72
2019-02-23T05:29:53.755Z,7.75
2019-02-23T05:35:01.846Z,8.61
2019-02-23T05:40:10.071Z,8.10
2019-02-23T05:45:18.339Z,8.53
2019-02-23T05:50:26.513Z,8.67
2019-02-23T05:55:34.647Z,8.02
2019-02-23T06:00:42.906Z,8.39
2019-02-23T06:05:51.106Z,7.32
2019-02-23T06:10:59.376Z,7.37
2019-02-23T06:16:08.202Z,7.12
2019-02-23T06:21:16.427Z,7.66
2019-02-23T06:26:24.609Z,7.82
2019-02-23T06:31:32.953Z,7.32
2019-02-23T06:36:41.049Z,7.98
2019-02-23T06:41:49.271Z,7.75
2019-02-23T06:46:57.630Z,7.75
2019-02-23T06:52:05.914Z,8.96
2019-02-23T06:57:14.257Z,8.25
2019-02-23T07:02:22.467Z,8.99
2019-02-23T07:07:30.862Z,9.64
2019-02-23T07:12:39.117Z,9.39
2019-02-23T07:17:47.340Z,8.88
2019-02-23T07:22:55.570Z,8.58
2019-02-23T07:28:03.754Z,9.78
2019-02-23T07:33:11.993Z,9.41
2019-02-23T07:38:20.128Z,9.71
2019-02-23T07:43:28.346Z,8.98
2019-02-23T07:48:36.525Z,9.49
2019-02-23T07:53:44.927Z,9.74
2019-02-23T07:58:52.917Z,10.00
2019-02-23T08:04:01.527Z,9.50
2019-02-23T08:09:09.797Z,9.62
2019-02-23T08:14:18.123Z,10.01
2019-02-23T08:19:26.324Z,9.54
2019-02-23T08:24:34.605Z,9.44
2019-02-23T08:29:42.666Z,11.71
2019-02-23T08:34:50.921Z,13.83
2019-02-23T08:39:59.270Z,14.01
2019-02-23T08:45:07.567Z,15.15
2019-02-23T08:50:15.841Z,13.52
2019-02-23T08:55:23.974Z,12.37
2019-02-23T09:00:32.437Z,12.45
2019-02-23T09:05:41.379Z,11.88
2019-02-23T09:10:50.043Z,12.00
2019-02-23T09:15:58.898Z,9.23
2019-02-23T09:21:07.385Z,10.39
2019-02-23T09:26:16.037Z,8.75
2019-02-23T09:31:24.185Z,8.35
2019-02-23T09:36:33.050Z,10.03
2019-02-23T09:41:41.176Z,9.51
2019-02-23T09:46:49.447Z,9.44
2019-02-23T09:51:57.586Z,10.89
2019-02-23T09:57:06.201Z,9.97
2019-02-23T10:02:14.349Z,10.14
2019-02-23T10:07:22.647Z,8.44
2019-02-23T10:12:30.912Z,8.13
2019-02-23T10:17:39.109Z,8.39
2019-02-23T10:22:47.495Z,9.06
2019-02-23T10:27:59.112Z,8.24
2019-02-23T10:33:04.046Z,8.52
2019-02-23T10:38:12.574Z,8.52
2019-02-23T10:43:20.892Z,7.99
2019-02-23T10:48:29.265Z,7.97
2019-02-23T10:53:37.487Z,8.67
2019-02-23T10:58:45.753Z,8.69
2019-02-23T11:03:53.915Z,8.48
2019-02-23T11:09:02.170Z,8.37
2019-02-23T11:14:10.323Z,8.20
2019-02-23T11:19:18.638Z,8.01
2019-02-23T11:24:26.837Z,8.43
2019-02-23T11:29:35.083Z,7.63
2019-02-23T11:34:43.301Z,7.53
2019-02-23T11:39:51.584Z,7.91
2019-02-23T11:44:59.739Z,7.54
2019-02-23T11:50:07.966Z,8.17
2019-02-23T11:55:16.941Z,8.07
2019-02-23T12:00:25.268Z,7.49
2019-02-23T12:05:33.569Z,7.58
2019-02-23T12:10:42.021Z,8.00
2019-02-23T12:15:50.450Z,7.80
2019-02-23T12:20:58.744Z,7.84
2019-02-23T12:26:06.941Z,7.57
2019-02-23T12:31:15.381Z,7.83
2019-02-23T12:36:23.614Z,7.71
2019-02-23T12:41:31.954Z,7.54
2019-02-23T12:46:40.415Z,7.75
2019-02-23T12:51:48.776Z,7.99
2019-02-23T12:56:57.492Z,8.48
2019-02-23T13:02:05.792Z,8.16
2019-02-23T13:07:13.939Z,7.96
2019-02-23T13:12:22.357Z,8.35
2019-02-23T13:17:30.833Z,8.18
2019-02-23T13:22:39.185Z,8.51
2019-02-23T13:27:47.449Z,8.26
2019-02-23T13:32:55.629Z,7.68
2019-02-23T13:38:03.789Z,8.85
2019-02-23T13:43:11.972Z,8.11
2019-02-23T13:48:21.266Z,8.49
2019-02-23T13:53:27.894Z,8.39
2019-02-23T13:58:36.176Z,8.51
2019-02-23T14:03:44.658Z,9.19
2019-02-23T14:08:52.753Z,9.50
2019-02-23T14:14:01.019Z,9.35
2019-02-23T14:19:09.227Z,8.61
2019-02-23T14:24:17.493Z,9.30
2019-02-23T14:29:25.566Z,9.19
2019-02-23T14:34:33.870Z,8.84
2019-02-23T14:39:42.029Z,9.44
2019-02-23T14:44:50.114Z,8.39
2019-02-23T14:49:58.308Z,9.18
2019-02-23T14:55:06.605Z,9.41
2019-02-23T15:00:14.799Z,9.20
2019-02-23T15:05:23.073Z,9.48
2019-02-23T15:10:31.494Z,9.10
2019-02-23T15:15:40.146Z,9.09
2019-02-23T15:20:48.371Z,10.21
2019-02-23T15:25:57.670Z,9.43
2019-02-23T15:31:06.029Z,9.80
2019-02-23T15:36:08.529Z,9.88
2019-02-23T15:41:19.328Z,9.95
2019-02-23T15:46:18.348Z,9.04
2019-02-23T15:51:20.526Z,8.82
2019-02-23T15:56:23.077Z,9.38
2019-02-23T16:01:28.427Z,9.27
2019-02-23T16:06:36.628Z,10.29
2019-02-23T16:11:45.354Z,10.06
2019-02-23T16:16:53.678Z,9.94
2019-02-23T16:22:01.843Z,10.84
2019-02-23T16:27:20.307Z,10.84
2019-02-23T16:32:19.565Z,9.92
2019-02-23T16:37:28.487Z,9.74
2019-02-23T16:42:37.270Z,9.88
2019-02-23T16:47:45.904Z,11.41
2019-02-23T16:52:54.246Z,10.56
2019-02-23T16:58:02.534Z,11.05
2019-02-23T17:03:10.959Z,10.44
2019-02-23T17:08:19.141Z,10.09
2019-02-23T17:13:27.329Z,11.49
2019-02-23T17:18:35.558Z,10.62
2019-02-23T17:23:43.866Z,11.46
2019-02-23T17:28:52.434Z,11.95
2019-02-23T17:34:00.617Z,13.12
2019-02-23T17:39:08.939Z,13.73
2019-02-23T17:44:17.348Z,12.06
2019-02-23T17:49:25.562Z,11.81
2019-02-23T17:54:33.889Z,11.54
2019-02-23T17:59:42.224Z,13.79
2019-02-23T18:04:50.466Z,15.56
2019-02-23T18:09:58.626Z,12.85
2019-02-23T18:15:06.753Z,11.39
2019-02-23T18:20:15.174Z,11.54
2019-02-23T18:25:23.525Z,11.55
2019-02-23T18:30:31.832Z,11.37
2019-02-23T18:35:40.074Z,11.58
2019-02-23T18:40:48.327Z,11.04
2019-02-23T18:45:56.510Z,11.17
2019-02-23T18:51:04.901Z,11.09
2019-02-23T18:56:13.425Z,11.46
2019-02-23T19:01:21.689Z,11.36
2019-02-23T19:06:29.753Z,11.44
2019-02-23T19:11:38.167Z,11.79
2019-02-23T19:16:46.764Z,12.36
2019-02-23T19:21:55.144Z,12.49
2019-02-23T19:27:03.505Z,11.82
2019-02-23T19:32:11.690Z,11.81
2019-02-23T19:37:20.451Z,10.94
2019-02-23T19:42:29.079Z,12.48
2019-02-23T19:47:37.151Z,12.90
2019-02-23T19:52:45.301Z,13.07
2019-02-23T19:57:53.576Z,12.91
2019-02-23T20:03:01.837Z,12.99
2019-02-23T20:08:10.010Z,12.41
2019-02-23T20:13:22.630Z,12.96
2019-02-23T20:18:21.330Z,12.74
2019-02-23T20:23:30.296Z,12.06
2019-02-23T20:28:38.861Z,13.19
2019-02-23T20:33:49.796Z,11.98
2019-02-23T20:38:48.155Z,12.13
2019-02-23T20:43:56.522Z,11.57
2019-02-23T20:48:59.612Z,12.86
2019-02-23T20:53:58.355Z,14.36
2019-02-23T20:59:07.886Z,11.45
2019-02-23T21:04:16.458Z,11.66
2019-02-23T21:09:27.171Z,12.77
2019-02-23T21:14:25.909Z,11.56
2019-02-23T21:19:39.250Z,11.96
2019-02-23T21:24:38.054Z,13.25
2019-02-23T21:29:53.784Z,12.20
2019-02-23T21:34:52.265Z,11.58
2019-02-23T21:40:00.670Z,11.79
2019-02-23T21:45:09.225Z,11.15
2019-02-23T21:50:10.202Z,11.40
2019-02-23T21:55:18.402Z,12.02
2019-02-23T22:00:27.486Z,12.41
2019-02-23T22:05:36.213Z,12.62
2019-02-23T22:10:37.400Z,12.36
2019-02-23T22:15:46.314Z,12.27
2019-02-23T22:20:54.583Z,11.50
2019-02-23T22:26:03.024Z,11.35
2019-02-23T22:31:11.578Z,11.72
2019-02-23T22:36:18.146Z,13.36
2019-02-23T22:41:26.579Z,11.88
2019-02-23T22:46:36.342Z,12.48
2019-02-23T22:51:44.760Z,13.61
2019-02-23T22:56:53.139Z,11.94
2019-02-23T23:02:01.845Z,13.83
2019-02-23T23:07:12.252Z,13.03
2019-02-23T23:12:10.788Z,12.87
2019-02-23T23:17:21.365Z,13.46
2019-02-23T23:22:20.363Z,13.22
2019-02-23T23:27:28.809Z,15.13
2019-02-23T23:32:37.229Z,14.16
2019-02-23T23:37:45.597Z,13.66
2019-02-23T23:42:58.136Z,13.32
2019-02-23T23:48:02.512Z,14.54
2019-02-23T23:53:10.785Z,14.87
2019-02-23T23:58:19.112Z,14.40
